Time;durP1;ratioP1;P1;durP2;ratioP2;P2;SDS_P1;SDS_P2;PMS_P1;PMS_P2;Temp;Humidity;BMP_temperature;BMP_pressure;BME280_temperature;BME280_humidity;BME280_pressure;Samples;Min_cycle;Max_cycle;Signal;HPM_P1;HPM_P2
2022/07/22 00:00:52;;;;;;;10.50;7.80;;;17.50;99.90;;;;;;5082575;28;20829;-60
2022/07/22 00:03:17;;;;;;;9.70;7.20;;;17.50;99.90;;;;;;5076598;28;20577;-62
2022/07/22 00:05:43;;;;;;;8.00;6.77;;;17.50;99.90;;;;;;5086121;28;20182;-60
2022/07/22 00:08:09;;;;;;;13.33;7.40;;;17.50;99.90;;;;;;5085162;28;20193;-60
2022/07/22 00:10:34;;;;;;;9.50;7.33;;;17.50;99.90;;;;;;5083977;28;20193;-60
2022/07/22 00:13:00;;;;;;;8.33;6.93;;;17.50;99.90;;;;;;5085979;28;20166;-59
2022/07/22 00:15:25;;;;;;;8.63;6.90;;;17.40;99.90;;;;;;5081356;28;20252;-59
2022/07/22 00:17:51;;;;;;;10.70;6.80;;;17.40;99.90;;;;;;5086436;28;20239;-62
2022/07/22 00:20:19;;;;;;;10.83;7.90;;;17.40;99.90;;;;;;5086042;28;20572;-60
2022/07/22 00:22:44;;;;;;;8.30;6.87;;;17.40;99.90;;;;;;5085151;28;20178;-59
2022/07/22 00:25:10;;;;;;;8.27;6.63;;;17.40;99.90;;;;;;5085343;28;20424;-60
2022/07/22 00:27:36;;;;;;;8.63;7.03;;;17.40;99.90;;;;;;5085070;28;20669;-60
2022/07/22 00:30:03;;;;;;;10.50;7.50;;;17.40;99.90;;;;;;5079156;28;20177;-59
2022/07/22 00:32:28;;;;;;;9.70;7.47;;;17.30;99.90;;;;;;5072465;28;20667;-59
2022/07/22 00:34:54;;;;;;;8.70;7.17;;;17.30;99.90;;;;;;5080398;28;20578;-62
2022/07/22 00:37:19;;;;;;;10.40;6.97;;;17.20;99.90;;;;;;5088521;28;20186;-60
2022/07/22 00:39:47;;;;;;;7.80;7.00;;;17.20;99.90;;;;;;5069262;28;20170;-59
2022/07/22 00:42:13;;;;;;;10.07;7.37;;;17.10;99.90;;;;;;5074619;28;20173;-59
2022/07/22 00:44:39;;;;;;;11.43;6.80;;;17.10;99.90;;;;;;5080088;28;20424;-60
2022/07/22 00:47:06;;;;;;;9.47;7.40;;;17.10;99.90;;;;;;5069056;28;20516;-60
2022/07/22 00:49:31;;;;;;;9.73;7.10;;;17.00;99.90;;;;;;5083847;28;20205;-59
2022/07/22 00:51:57;;;;;;;15.03;7.80;;;17.00;99.90;;;;;;5082846;28;20455;-59
2022/07/22 00:54:23;;;;;;;10.07;7.60;;;17.00;99.90;;;;;;5088947;28;20215;-60
2022/07/22 00:56:49;;;;;;;10.90;7.83;;;17.00;99.90;;;;;;5087534;28;20197;-59
2022/07/22 00:59:15;;;;;;;11.57;6.97;;;16.90;99.90;;;;;;5092959;28;20522;-60
2022/07/22 01:01:41;;;;;;;10.37;7.70;;;16.90;99.90;;;;;;5077413;28;20198;-60
2022/07/22 01:04:06;;;;;;;14.90;8.23;;;16.90;99.90;;;;;;5082907;28;20432;-59
2022/07/22 01:06:32;;;;;;;9.70;7.90;;;16.80;99.90;;;;;;5082885;28;20182;-58
2022/07/22 01:08:59;;;;;;;9.53;7.20;;;16.80;99.90;;;;;;5072213;28;20962;-63
2022/07/22 01:11:25;;;;;;;9.33;7.40;;;16.80;99.90;;;;;;5082941;28;20193;-59
2022/07/22 01:13:53;;;;;;;8.20;7.27;;;16.80;99.90;;;;;;5085444;28;20489;-60
2022/07/22 01:16:19;;;;;;;10.70;7.93;;;16.80;99.90;;;;;;5087623;28;20435;-59
2022/07/22 01:18:45;;;;;;;12.40;7.13;;;16.80;99.90;;;;;;5084745;28;20451;-59
2022/07/22 01:21:11;;;;;;;12.93;7.77;;;16.80;99.90;;;;;;5079885;28;20560;-58
2022/07/22 01:23:37;;;;;;;11.67;7.40;;;16.70;99.90;;;;;;5084203;28;20955;-65
2022/07/22 01:26:03;;;;;;;11.37;7.40;;;16.70;99.90;;;;;;5090221;28;20182;-59
2022/07/22 01:28:29;;;;;;;8.47;7.13;;;16.60;99.90;;;;;;5091175;28;20459;-59
2022/07/22 01:30:55;;;;;;;8.90;7.17;;;16.60;99.90;;;;;;5086016;28;20455;-61
2022/07/22 01:33:22;;;;;;;8.03;7.23;;;16.60;99.90;;;;;;5080753;28;20234;-60
2022/07/22 01:35:49;;;;;;;8.60;7.03;;;16.50;99.90;;;;;;5086268;28;20433;-59
2022/07/22 01:38:16;;;;;;;9.90;7.83;;;16.50;99.90;;;;;;5073601;28;20448;-59
2022/07/22 01:40:43;;;;;;;9.33;8.10;;;16.50;99.90;;;;;;5084985;28;20443;-59
2022/07/22 01:43:09;;;;;;;9.47;7.20;;;16.50;99.90;;;;;;5068970;28;20440;-62
2022/07/22 01:45:35;;;;;;;13.07;7.40;;;16.40;99.90;;;;;;5083740;28;20439;-59
2022/07/22 01:48:01;;;;;;;12.53;7.60;;;16.40;99.90;;;;;;5085956;28;20654;-58
2022/07/22 01:50:27;;;;;;;9.40;7.43;;;16.40;99.90;;;;;;5073111;28;20182;-59
2022/07/22 01:52:52;;;;;;;12.57;7.17;;;16.40;99.90;;;;;;5080367;28;20433;-60
2022/07/22 01:55:18;;;;;;;10.20;7.30;;;16.30;99.90;;;;;;5087503;28;20205;-59
2022/07/22 01:57:44;;;;;;;12.43;7.87;;;16.30;99.90;;;;;;5080760;28;20209;-60
2022/07/22 02:00:11;;;;;;;9.23;7.90;;;16.30;99.90;;;;;;5083446;28;20443;-62
2022/07/22 02:02:37;;;;;;;8.90;8.00;;;16.20;99.90;;;;;;5090809;28;20205;-60
2022/07/22 02:05:05;;;;;;;12.40;8.20;;;16.20;99.90;;;;;;5087722;28;20488;-60
2022/07/22 02:07:31;;;;;;;8.60;7.20;;;16.20;99.90;;;;;;5089143;28;20545;-59
2022/07/22 02:09:57;;;;;;;11.63;8.10;;;16.20;99.90;;;;;;5085107;28;20443;-59
2022/07/22 02:12:22;;;;;;;8.17;7.37;;;16.20;99.90;;;;;;5090128;28;20460;-60
2022/07/22 02:14:48;;;;;;;8.97;7.43;;;16.20;99.90;;;;;;5078764;28;20529;-60
2022/07/22 02:17:14;;;;;;;12.40;8.47;;;16.10;99.90;;;;;;5078148;28;20204;-60
2022/07/22 02:19:40;;;;;;;10.97;7.70;;;16.10;99.90;;;;;;5087489;28;20693;-60
2022/07/22 02:22:06;;;;;;;8.53;7.30;;;16.10;99.90;;;;;;5090550;28;21121;-59
2022/07/22 02:24:32;;;;;;;8.07;6.80;;;16.10;99.90;;;;;;5082778;28;20178;-61
2022/07/22 02:26:58;;;;;;;9.70;7.60;;;16.10;99.90;;;;;;5089358;28;20880;-60
2022/07/22 02:29:24;;;;;;;12.23;8.07;;;16.00;99.90;;;;;;5088469;28;20232;-60
2022/07/22 02:31:50;;;;;;;8.60;7.70;;;16.00;99.90;;;;;;5083884;28;20992;-60
2022/07/22 02:34:16;;;;;;;10.30;7.13;;;16.00;99.90;;;;;;5082742;28;20182;-59
2022/07/22 02:36:41;;;;;;;10.90;8.07;;;16.00;99.90;;;;;;5076215;28;20535;-62
2022/07/22 02:39:07;;;;;;;10.87;8.00;;;16.00;99.90;;;;;;5075994;28;20189;-60
2022/07/22 02:41:33;;;;;;;11.67;8.40;;;16.00;99.90;;;;;;5082162;28;20178;-62
2022/07/22 02:43:58;;;;;;;10.23;8.30;;;15.90;99.90;;;;;;5084651;28;20203;-60
2022/07/22 02:46:25;;;;;;;8.53;7.73;;;15.90;99.90;;;;;;5072604;28;20210;-60
2022/07/22 02:48:51;;;;;;;10.40;8.07;;;15.90;99.90;;;;;;5074785;28;20257;-59
2022/07/22 02:51:17;;;;;;;13.90;8.83;;;15.90;99.90;;;;;;5083378;28;21216;-60
2022/07/22 02:53:42;;;;;;;9.40;8.40;;;15.80;99.90;;;;;;5082520;28;20193;-60
2022/07/22 02:56:08;;;;;;;11.87;8.03;;;15.80;99.90;;;;;;5085723;28;20177;-60
2022/07/22 02:58:34;;;;;;;12.27;8.20;;;15.80;99.90;;;;;;5086905;28;20281;-60
2022/07/22 03:00:59;;;;;;;14.30;8.30;;;15.80;99.90;;;;;;5072853;28;20194;-59
2022/07/22 03:03:25;;;;;;;8.80;7.10;;;15.80;99.90;;;;;;5080196;28;20260;-60
2022/07/22 03:05:51;;;;;;;10.20;7.83;;;15.70;99.90;;;;;;5081255;28;20171;-59
2022/07/22 03:08:17;;;;;;;11.37;7.90;;;15.70;99.90;;;;;;5081137;28;20271;-62
2022/07/22 03:10:44;;;;;;;8.73;7.80;;;15.70;99.90;;;;;;5075051;28;20984;-60
2022/07/22 03:13:09;;;;;;;10.03;8.10;;;15.70;99.90;;;;;;5077712;28;20253;-60
2022/07/22 03:15:35;;;;;;;10.93;8.30;;;15.70;99.90;;;;;;5086464;28;20515;-59
2022/07/22 03:18:01;;;;;;;12.23;7.87;;;15.60;99.90;;;;;;5082233;28;20194;-60
2022/07/22 03:20:27;;;;;;;14.10;8.23;;;15.60;99.90;;;;;;5079626;28;20227;-61
2022/07/22 03:22:52;;;;;;;13.83;8.00;;;15.60;99.90;;;;;;5076308;28;20678;-60
2022/07/22 03:25:18;;;;;;;12.53;8.10;;;15.60;99.90;;;;;;5087839;28;20158;-60
2022/07/22 03:27:44;;;;;;;9.47;8.47;;;15.60;99.90;;;;;;5088175;28;20193;-59
2022/07/22 03:30:10;;;;;;;11.67;8.53;;;15.60;99.90;;;;;;5071004;28;20175;-59
2022/07/22 03:32:36;;;;;;;10.83;8.37;;;15.60;99.90;;;;;;5072614;28;20212;-60
2022/07/22 03:35:02;;;;;;;11.80;8.00;;;15.60;99.90;;;;;;5087510;28;20502;-60
2022/07/22 03:37:27;;;;;;;12.40;7.70;;;15.50;99.90;;;;;;5085439;28;20560;-59
2022/07/22 03:39:53;;;;;;;12.63;8.67;;;15.50;99.90;;;;;;5085353;28;20420;-60
2022/07/22 03:42:19;;;;;;;14.67;8.70;;;15.50;99.90;;;;;;5069097;28;20178;-59
2022/07/22 03:44:44;;;;;;;14.67;9.07;;;15.50;99.90;;;;;;5085027;28;20586;-60
2022/07/22 03:47:10;;;;;;;11.20;8.23;;;15.50;99.90;;;;;;5075472;28;20186;-59
2022/07/22 03:49:36;;;;;;;10.40;7.67;;;15.50;99.90;;;;;;5065362;28;20174;-59
2022/07/22 03:52:01;;;;;;;18.37;8.50;;;15.50;99.90;;;;;;5079311;28;20224;-60
2022/07/22 03:54:27;;;;;;;11.83;8.03;;;15.50;99.90;;;;;;5069415;28;20167;-61
2022/07/22 03:56:52;;;;;;;11.57;7.60;;;15.50;99.90;;;;;;5070491;28;20170;-60
2022/07/22 03:59:18;;;;;;;17.00;8.13;;;15.50;99.90;;;;;;5071366;28;20173;-62
2022/07/22 04:01:44;;;;;;;10.30;8.00;;;15.40;99.90;;;;;;5070706;28;20282;-59
2022/07/22 04:04:09;;;;;;;11.50;8.10;;;15.40;99.90;;;;;;5075576;28;20579;-59
2022/07/22 04:06:35;;;;;;;9.07;7.87;;;15.40;99.90;;;;;;5075393;28;20949;-59
2022/07/22 04:09:01;;;;;;;13.17;8.77;;;15.40;99.90;;;;;;5073772;28;21241;-59
2022/07/22 04:11:27;;;;;;;11.90;9.00;;;15.40;99.90;;;;;;5072089;28;20336;-61
2022/07/22 04:13:53;;;;;;;10.70;8.30;;;15.40;99.90;;;;;;5072979;28;20479;-61
2022/07/22 04:16:18;;;;;;;11.13;8.97;;;15.40;99.90;;;;;;5072458;28;20530;-61
2022/07/22 04:18:44;;;;;;;11.10;8.30;;;15.40;99.90;;;;;;5067398;28;20201;-61
2022/07/22 04:21:10;;;;;;;10.73;9.57;;;15.40;99.90;;;;;;5075530;28;20182;-59
2022/07/22 04:23:36;;;;;;;12.50;9.03;;;15.40;99.90;;;;;;5086849;28;20265;-59
2022/07/22 04:26:02;;;;;;;13.13;9.30;;;15.40;99.90;;;;;;5085317;28;20512;-59
2022/07/22 04:28:27;;;;;;;11.23;9.23;;;15.40;99.90;;;;;;5086039;28;20227;-59
2022/07/22 04:30:53;;;;;;;11.57;8.97;;;15.40;99.90;;;;;;5080530;28;20198;-59
2022/07/22 04:33:18;;;;;;;12.60;9.27;;;15.40;99.90;;;;;;5091309;28;20220;-59
2022/07/22 04:35:44;;;;;;;13.43;8.93;;;15.50;99.90;;;;;;5088018;28;20639;-59
2022/07/22 04:38:10;;;;;;;9.03;7.93;;;15.50;99.90;;;;;;5082701;28;20201;-59
2022/07/22 04:40:35;;;;;;;19.00;9.53;;;15.50;99.90;;;;;;5081271;28;20178;-59
2022/07/22 04:43:01;;;;;;;11.97;8.50;;;15.50;99.90;;;;;;5086161;28;20174;-58
2022/07/22 04:45:27;;;;;;;13.17;9.83;;;15.50;99.90;;;;;;5074061;28;20184;-59
2022/07/22 04:47:52;;;;;;;10.70;9.00;;;15.50;99.90;;;;;;5076491;28;20282;-60
2022/07/22 04:50:18;;;;;;;9.80;8.53;;;15.60;99.90;;;;;;5087482;28;20186;-60
2022/07/22 04:52:44;;;;;;;11.90;8.13;;;15.60;99.90;;;;;;5086527;28;20240;-60
2022/07/22 04:55:10;;;;;;;15.20;9.53;;;15.70;99.90;;;;;;5072626;28;20163;-60
2022/07/22 04:57:36;;;;;;;13.00;8.60;;;15.70;99.90;;;;;;5090294;28;20450;-61
2022/07/22 05:00:03;;;;;;;14.60;8.97;;;15.80;99.90;;;;;;5078808;28;20182;-60
2022/07/22 05:02:28;;;;;;;10.67;8.73;;;15.80;99.90;;;;;;5089113;28;20190;-60
2022/07/22 05:04:54;;;;;;;11.73;9.00;;;15.90;99.90;;;;;;5078491;28;20500;-61
2022/07/22 05:07:20;;;;;;;12.03;8.60;;;15.90;99.90;;;;;;5091252;28;20359;-60
2022/07/22 05:09:45;;;;;;;12.10;8.10;;;16.00;99.90;;;;;;5078762;28;20651;-61
2022/07/22 05:12:11;;;;;;;13.70;8.53;;;16.10;99.90;;;;;;5085729;28;20202;-61
2022/07/22 05:14:36;;;;;;;11.97;8.97;;;16.10;99.90;;;;;;5080452;28;20220;-60
2022/07/22 05:17:02;;;;;;;11.63;8.63;;;16.20;99.90;;;;;;5084178;28;20201;-60
2022/07/22 05:19:28;;;;;;;16.10;8.90;;;16.30;99.90;;;;;;5077064;28;20182;-60
2022/07/22 05:21:53;;;;;;;16.20;8.97;;;16.30;99.90;;;;;;5076058;28;20174;-60
2022/07/22 05:24:19;;;;;;;10.47;7.97;;;16.40;99.90;;;;;;5083233;28;20170;-60
2022/07/22 05:26:44;;;;;;;14.93;9.00;;;16.40;99.90;;;;;;5084265;28;20182;-60
2022/07/22 05:29:10;;;;;;;13.50;8.20;;;16.40;99.90;;;;;;5084292;28;20177;-60
2022/07/22 05:31:36;;;;;;;13.00;9.37;;;16.50;99.90;;;;;;5092363;28;20192;-60
2022/07/22 05:34:03;;;;;;;11.10;8.50;;;16.50;99.90;;;;;;5078733;28;20201;-59
2022/07/22 05:36:28;;;;;;;13.87;9.30;;;16.50;99.90;;;;;;5083701;28;20541;-60
2022/07/22 05:38:54;;;;;;;18.27;11.30;;;16.60;99.90;;;;;;5084012;28;20446;-60
2022/07/22 05:41:20;;;;;;;12.00;10.20;;;16.60;99.90;;;;;;5087608;28;20604;-59
2022/07/22 05:43:45;;;;;;;16.83;12.10;;;16.70;99.90;;;;;;5082382;28;20703;-60
2022/07/22 05:46:11;;;;;;;12.37;9.53;;;16.80;99.90;;;;;;5084474;28;20174;-61
2022/07/22 05:48:36;;;;;;;11.93;9.13;;;16.90;99.90;;;;;;5089029;28;20198;-61
2022/07/22 05:51:02;;;;;;;14.53;9.30;;;17.00;99.90;;;;;;5086211;28;20248;-60
2022/07/22 05:53:28;;;;;;;11.30;8.20;;;17.10;99.90;;;;;;5081304;28;20669;-60
2022/07/22 05:55:53;;;;;;;12.10;8.70;;;17.20;99.90;;;;;;5080046;28;20173;-60
2022/07/22 05:58:19;;;;;;;13.60;8.10;;;17.30;99.90;;;;;;5084335;28;20217;-60
2022/07/22 06:00:45;;;;;;;10.67;8.20;;;17.40;99.90;;;;;;5083914;28;20214;-60
2022/07/22 06:03:10;;;;;;;11.00;8.40;;;17.50;99.90;;;;;;5083085;28;20193;-59
2022/07/22 06:05:36;;;;;;;9.13;8.23;;;17.60;99.90;;;;;;5085632;28;20178;-60
2022/07/22 06:08:02;;;;;;;10.17;8.60;;;17.60;99.90;;;;;;5077346;28;20561;-60
2022/07/22 06:10:28;;;;;;;11.40;8.10;;;17.70;99.90;;;;;;5087034;28;20173;-61
2022/07/22 06:12:53;;;;;;;15.13;8.97;;;17.80;99.90;;;;;;5084939;28;20432;-60
2022/07/22 06:15:19;;;;;;;13.13;8.57;;;17.80;99.90;;;;;;5088104;28;20201;-60
2022/07/22 06:17:44;;;;;;;11.20;8.67;;;17.90;99.90;;;;;;5091051;28;20196;-60
2022/07/22 06:20:10;;;;;;;12.37;8.27;;;18.00;99.90;;;;;;5085423;28;20704;-61
2022/07/22 06:22:38;;;;;;;11.60;8.60;;;18.10;99.90;;;;;;5072664;28;20178;-60
2022/07/22 06:25:05;;;;;;;11.20;7.70;;;18.20;99.90;;;;;;5081363;28;20167;-60
2022/07/22 06:27:31;;;;;;;11.23;8.80;;;18.30;99.90;;;;;;5088178;28;20454;-60
2022/07/22 06:29:56;;;;;;;9.90;8.87;;;18.50;99.90;;;;;;5077260;28;20432;-59
2022/07/22 06:32:22;;;;;;;15.80;9.13;;;18.60;99.90;;;;;;5089907;28;20202;-60
2022/07/22 06:34:47;;;;;;;11.10;8.27;;;18.70;99.90;;;;;;5077613;28;20179;-60
2022/07/22 06:37:13;;;;;;;14.93;9.57;;;18.80;99.90;;;;;;5081719;28;20658;-60
2022/07/22 06:39:39;;;;;;;16.90;8.93;;;18.90;99.90;;;;;;5084981;28;20255;-60
2022/07/22 06:42:04;;;;;;;13.60;8.97;;;19.00;99.90;;;;;;5078705;28;20369;-60
2022/07/22 06:44:30;;;;;;;14.47;8.50;;;19.20;99.90;;;;;;5073033;28;20178;-61
2022/07/22 06:46:55;;;;;;;9.57;8.60;;;19.30;98.30;;;;;;5082461;28;20222;-60
2022/07/22 06:49:21;;;;;;;11.70;8.50;;;19.50;96.50;;;;;;5083188;28;20269;-60
2022/07/22 06:51:47;;;;;;;12.90;8.07;;;19.50;95.60;;;;;;5075676;28;20193;-60
2022/07/22 06:54:13;;;;;;;20.87;8.70;;;19.60;94.80;;;;;;5081296;28;20173;-60
2022/07/22 06:56:38;;;;;;;11.10;8.90;;;19.70;93.60;;;;;;5074086;28;20261;-61
2022/07/22 06:59:04;;;;;;;11.17;8.87;;;19.90;93.80;;;;;;5081762;28;20209;-60
2022/07/22 07:01:29;;;;;;;9.53;8.53;;;20.00;93.50;;;;;;5078999;28;20193;-60
2022/07/22 07:03:55;;;;;;;13.20;8.67;;;20.20;92.50;;;;;;5077928;28;20218;-60
2022/07/22 07:06:21;;;;;;;14.63;8.50;;;20.30;91.90;;;;;;5081174;28;20709;-60
2022/07/22 07:08:46;;;;;;;12.40;8.60;;;20.50;91.20;;;;;;5069750;28;20248;-61
2022/07/22 07:11:12;;;;;;;9.23;7.77;;;20.60;91.10;;;;;;5084756;28;20248;-57
2022/07/22 07:13:38;;;;;;;15.37;8.47;;;20.70;90.80;;;;;;5081538;28;20185;-57
2022/07/22 07:16:04;;;;;;;11.63;8.07;;;20.90;90.20;;;;;;5079875;28;20201;-56
2022/07/22 07:18:29;;;;;;;9.10;8.00;;;21.00;88.40;;;;;;5085333;28;20564;-57
2022/07/22 07:20:55;;;;;;;13.43;8.60;;;21.20;88.80;;;;;;5085850;28;20209;-57
2022/07/22 07:23:21;;;;;;;14.13;8.27;;;21.30;88.00;;;;;;5073255;28;20304;-59
2022/07/22 07:25:47;;;;;;;9.93;7.77;;;21.40;85.20;;;;;;5073486;28;20274;-59
2022/07/22 07:28:12;;;;;;;10.03;7.60;;;21.50;84.60;;;;;;5082994;28;20546;-59
2022/07/22 07:30:38;;;;;;;11.63;7.83;;;21.60;84.00;;;;;;5082500;28;20235;-59
2022/07/22 07:33:04;;;;;;;9.40;7.87;;;21.80;83.60;;;;;;5080372;28;20174;-59
2022/07/22 07:35:30;;;;;;;10.60;7.60;;;21.90;80.80;;;;;;5069374;28;20185;-58
2022/07/22 07:37:55;;;;;;;16.43;7.90;;;22.00;78.70;;;;;;5077888;28;20197;-60
2022/07/22 07:40:21;;;;;;;10.10;7.80;;;22.20;76.60;;;;;;5080461;28;20272;-59
2022/07/22 07:42:47;;;;;;;12.30;7.80;;;22.30;75.40;;;;;;5084947;28;20209;-57
2022/07/22 07:45:12;;;;;;;8.80;7.80;;;22.40;74.60;;;;;;5081098;28;20216;-59
2022/07/22 07:47:38;;;;;;;10.73;7.60;;;22.60;73.30;;;;;;5080286;28;20958;-56
2022/07/22 07:50:07;;;;;;;12.20;8.73;;;22.70;71.50;;;;;;5079809;28;20190;-59
2022/07/22 07:52:38;;;;;;;11.00;7.67;;;22.80;69.90;;;;;;5081426;28;20213;-60
2022/07/22 07:55:05;;;;;;;15.13;12.97;;;22.90;69.20;;;;;;5075218;28;20437;-59
2022/07/22 07:57:30;;;;;;;10.83;9.10;;;23.00;68.50;;;;;;5071709;28;20448;-60
2022/07/22 07:59:56;;;;;;;15.00;10.10;;;23.20;68.20;;;;;;5081565;28;20450;-59
2022/07/22 08:02:21;;;;;;;11.33;9.73;;;23.30;67.10;;;;;;5076278;28;20664;-58
2022/07/22 08:04:47;;;;;;;13.20;8.60;;;23.30;65.40;;;;;;5067629;28;20634;-58
2022/07/22 08:07:13;;;;;;;17.43;12.30;;;23.50;65.30;;;;;;5075219;28;20205;-59
2022/07/22 08:09:39;;;;;;;8.80;7.30;;;23.50;64.70;;;;;;5073603;28;20206;-60
2022/07/22 08:12:05;;;;;;;13.27;8.77;;;23.60;63.50;;;;;;5074187;28;20232;-59
2022/07/22 08:14:31;;;;;;;8.40;7.17;;;23.70;62.70;;;;;;5075036;28;20449;-60
2022/07/22 08:16:57;;;;;;;14.67;10.20;;;23.80;61.20;;;;;;5074814;28;20472;-60
2022/07/22 08:19:23;;;;;;;16.27;8.43;;;23.90;61.40;;;;;;5076551;28;20509;-59
2022/07/22 08:21:49;;;;;;;14.33;9.23;;;23.90;61.00;;;;;;5068330;28;20467;-59
2022/07/22 08:24:14;;;;;;;13.03;8.93;;;24.00;61.10;;;;;;5072287;28;20899;-59
2022/07/22 08:26:40;;;;;;;11.00;7.67;;;24.10;61.80;;;;;;5083668;28;20178;-59
2022/07/22 08:29:09;;;;;;;10.70;8.77;;;24.20;61.30;;;;;;5077610;28;20272;-60
2022/07/22 08:31:35;;;;;;;12.23;7.50;;;24.30;60.70;;;;;;5067770;28;20660;-59
2022/07/22 08:34:02;;;;;;;16.23;8.30;;;24.40;60.70;;;;;;5082125;28;20420;-58
2022/07/22 08:36:28;;;;;;;13.23;9.47;;;24.40;60.70;;;;;;5078841;28;20435;-56
2022/07/22 08:38:54;;;;;;;11.50;8.90;;;24.50;61.30;;;;;;5071296;28;21259;-59
2022/07/22 08:41:22;;;;;;;8.17;7.33;;;24.70;61.50;;;;;;5068771;28;20531;-59
2022/07/22 08:43:48;;;;;;;15.20;7.97;;;24.70;59.90;;;;;;5083438;28;20173;-57
2022/07/22 08:46:14;;;;;;;13.97;7.93;;;24.80;59.50;;;;;;5079114;28;20931;-58
2022/07/22 08:48:40;;;;;;;10.27;7.37;;;24.90;58.70;;;;;;5072314;28;20483;-58
2022/07/22 08:51:06;;;;;;;15.80;8.00;;;24.90;58.50;;;;;;5073143;28;20320;-58
2022/07/22 08:53:32;;;;;;;10.77;7.60;;;25.10;58.30;;;;;;5074833;28;20439;-58
2022/07/22 08:55:58;;;;;;;9.20;8.00;;;25.10;57.90;;;;;;5081047;28;20423;-58
2022/07/22 08:58:25;;;;;;;8.43;7.40;;;25.20;57.60;;;;;;5084140;28;20205;-58
2022/07/22 09:01:11;;;;;;;10.50;8.20;;;25.20;57.70;;;;;;5084514;28;20499;-59
2022/07/22 09:03:49;;;;;;;10.00;7.10;;;25.40;57.60;;;;;;5077332;28;20458;-59
2022/07/22 09:06:17;;;;;;;10.20;7.57;;;25.50;57.00;;;;;;5080152;28;20411;-59
2022/07/22 09:09:02;;;;;;;7.93;7.13;;;25.60;56.60;;;;;;5084542;28;20477;-59
2022/07/22 09:11:29;;;;;;;8.60;7.53;;;25.70;56.30;;;;;;5076779;28;20459;-59
2022/07/22 09:13:57;;;;;;;13.50;7.67;;;25.70;56.10;;;;;;5089440;28;20667;-58
2022/07/22 09:16:43;;;;;;;11.90;7.90;;;25.80;56.50;;;;;;5077724;28;20420;-59
2022/07/22 09:19:10;;;;;;;9.07;6.90;;;25.90;56.60;;;;;;5080734;28;20424;-58
2022/07/22 09:21:42;;;;;;;9.50;7.40;;;26.00;56.20;;;;;;5072808;28;20456;-59
2022/07/22 09:24:12;;;;;;;10.93;6.67;;;26.10;55.30;;;;;;5077777;28;20412;-60
2022/07/22 09:26:39;;;;;;;12.80;7.10;;;26.30;54.70;;;;;;5077838;28;20847;-61
2022/07/22 09:29:06;;;;;;;7.20;6.50;;;26.40;54.00;;;;;;5071459;28;21416;-60
2022/07/22 09:31:36;;;;;;;10.23;7.57;;;26.50;53.70;;;;;;5075282;28;21105;-60
2022/07/22 09:34:03;;;;;;;8.77;7.20;;;26.50;54.40;;;;;;5071483;28;20428;-59
2022/07/22 09:36:30;;;;;;;11.17;7.27;;;26.60;53.50;;;;;;5080909;28;20986;-60
2022/07/22 09:38:57;;;;;;;15.23;7.27;;;26.60;53.20;;;;;;5084037;28;20447;-60
2022/07/22 09:41:22;;;;;;;7.60;6.70;;;26.70;53.40;;;;;;5076372;28;20435;-58
2022/07/22 09:43:49;;;;;;;10.37;6.27;;;26.70;51.30;;;;;;5070024;28;20469;-59
2022/07/22 09:46:16;;;;;;;8.23;6.43;;;26.80;50.00;;;;;;5081483;28;20177;-60
2022/07/22 09:48:42;;;;;;;9.83;6.70;;;26.80;48.90;;;;;;5079954;28;20531;-58
2022/07/22 09:51:08;;;;;;;12.07;6.33;;;26.90;48.90;;;;;;5077371;28;20205;-60
2022/07/22 09:53:34;;;;;;;7.80;6.10;;;27.00;47.00;;;;;;5080205;28;20537;-58
2022/07/22 09:56:02;;;;;;;9.30;6.40;;;27.00;46.80;;;;;;5075317;28;20264;-59
2022/07/22 09:58:29;;;;;;;13.37;6.40;;;27.10;47.40;;;;;;5067533;28;22141;-60
2022/07/22 10:00:58;;;;;;;7.50;6.30;;;27.30;47.50;;;;;;5079010;28;20659;-59
2022/07/22 10:03:29;;;;;;;7.33;5.90;;;27.40;46.70;;;;;;5065950;28;20173;-58
2022/07/22 10:05:56;;;;;;;7.00;6.13;;;27.60;46.60;;;;;;5069581;28;22125;-60
2022/07/22 10:08:25;;;;;;;7.23;6.30;;;27.80;46.00;;;;;;5081054;28;20281;-59
2022/07/22 10:10:52;;;;;;;7.50;6.40;;;27.90;45.90;;;;;;5078043;28;20177;-59
2022/07/22 10:13:19;;;;;;;9.60;6.50;;;28.00;46.30;;;;;;5075512;28;20830;-60
2022/07/22 10:15:46;;;;;;;7.93;6.10;;;28.10;45.70;;;;;;5067143;28;20178;-58
2022/07/22 10:18:17;;;;;;;9.23;6.20;;;28.20;46.00;;;;;;5072988;28;20745;-59
2022/07/22 10:20:43;;;;;;;9.47;7.00;;;28.20;45.30;;;;;;5061669;28;20567;-60
2022/07/22 10:23:11;;;;;;;10.70;6.60;;;28.20;44.80;;;;;;5063118;28;20177;-59
2022/07/22 10:25:51;;;;;;;10.43;7.10;;;28.20;45.10;;;;;;5066503;28;20178;-58
2022/07/22 10:28:21;;;;;;;8.73;6.90;;;28.20;44.80;;;;;;5070688;28;20192;-59
2022/07/22 10:30:47;;;;;;;7.80;7.10;;;28.30;44.40;;;;;;5060765;28;20273;-64
2022/07/22 10:33:20;;;;;;;9.70;7.00;;;28.40;44.60;;;;;;5064202;28;20178;-62
2022/07/22 10:35:58;;;;;;;9.50;5.50;;;28.50;44.30;;;;;;5066728;28;20374;-61
2022/07/22 10:38:25;;;;;;;13.25;6.90;;;28.60;43.70;;;;;;5068726;28;20213;-62
2022/07/22 10:40:56;;;;;;;9.13;6.03;;;28.80;44.10;;;;;;5085904;28;20189;-61
2022/07/22 10:43:28;;;;;;;9.40;7.78;;;28.90;44.50;;;;;;5084119;28;20174;-62
2022/07/22 10:45:54;;;;;;;10.75;6.40;;;29.00;43.90;;;;;;5079533;28;20178;-62
2022/07/22 10:48:23;;;;;;;8.40;7.07;;;29.00;44.10;;;;;;5090395;28;20276;-62
2022/07/22 10:51:08;;;;;;;9.32;7.03;;;28.90;44.40;;;;;;5079974;28;20280;-62
2022/07/22 10:54:01;;;;;;;8.77;6.47;;;28.90;44.80;;;;;;5086364;28;20273;-63
2022/07/22 10:56:30;;;;;;;7.38;6.22;;;28.90;45.30;;;;;;5086476;28;20303;-62
2022/07/22 10:59:16;;;;;;;10.07;6.53;;;29.00;45.10;;;;;;5084933;28;20202;-62
2022/07/22 11:01:46;;;;;;;6.95;5.93;;;29.10;45.70;;;;;;5079068;28;20886;-61
2022/07/22 11:04:14;;;;;;;10.63;6.75;;;29.40;44.60;;;;;;5082991;28;20181;-61
2022/07/22 11:06:41;;;;;;;8.15;6.38;;;29.60;44.70;;;;;;5082404;28;20235;-62
2022/07/22 11:09:11;;;;;;;7.88;6.13;;;29.70;45.10;;;;;;5088324;28;20189;-61
2022/07/22 11:11:42;;;;;;;12.38;6.47;;;29.80;44.10;;;;;;5070297;28;20188;-62
2022/07/22 11:14:42;;;;;;;9.13;5.88;;;30.00;44.40;;;;;;5076149;28;20253;-62
2022/07/22 11:17:13;;;;;;;10.05;6.35;;;30.20;44.50;;;;;;5039629;28;20266;-62
2022/07/22 11:19:40;;;;;;;6.95;6.25;;;30.30;43.80;;;;;;5071952;28;20183;-63
2022/07/22 11:22:12;;;;;;;11.65;5.95;;;30.40;43.00;;;;;;5083492;28;20874;-62
2022/07/22 11:24:39;;;;;;;6.85;6.15;;;30.50;42.60;;;;;;5077847;28;20186;-62
2022/07/22 11:27:13;;;;;;;12.32;5.95;;;30.60;42.70;;;;;;5087866;28;21077;-61
2022/07/22 11:29:41;;;;;;;10.38;6.15;;;30.70;42.20;;;;;;5087935;28;20170;-62
2022/07/22 11:32:09;;;;;;;9.85;6.28;;;30.70;40.90;;;;;;5082442;28;20758;-62
2022/07/22 11:34:47;;;;;;;7.65;5.90;;;30.70;41.30;;;;;;5081610;28;20182;-62
2022/07/22 11:37:14;;;;;;;7.07;6.38;;;30.70;42.20;;;;;;5089590;28;20275;-61
2022/07/22 11:39:40;;;;;;;7.20;6.45;;;30.70;41.60;;;;;;5084310;28;20176;-62
2022/07/22 11:42:07;;;;;;;8.68;6.25;;;30.60;41.80;;;;;;5082488;28;20190;-63
2022/07/22 11:44:36;;;;;;;6.90;6.30;;;30.60;42.80;;;;;;5078174;28;20180;-62
2022/07/22 11:47:04;;;;;;;8.63;6.75;;;30.60;42.80;;;;;;5083472;28;20257;-62
2022/07/22 11:49:33;;;;;;;7.30;6.35;;;30.80;42.80;;;;;;5078971;28;20181;-63
2022/07/22 11:51:59;;;;;;;7.45;6.65;;;30.80;41.30;;;;;;5080723;28;20220;-63
2022/07/22 11:54:25;;;;;;;8.85;5.93;;;30.80;40.70;;;;;;5076784;28;20319;-63
2022/07/22 11:56:51;;;;;;;7.97;6.00;;;30.80;40.80;;;;;;5082031;28;20182;-63
2022/07/22 11:59:17;;;;;;;9.82;6.18;;;30.90;42.00;;;;;;5087030;28;20175;-63
2022/07/22 12:01:44;;;;;;;10.73;6.63;;;31.10;41.70;;;;;;5086715;28;20663;-63
2022/07/22 12:04:19;;;;;;;12.38;6.47;;;31.40;41.70;;;;;;5077785;28;20181;-63
2022/07/22 12:06:45;;;;;;;7.47;6.53;;;31.60;41.50;;;;;;5088089;28;20171;-63
2022/07/22 12:09:19;;;;;;;7.13;5.90;;;31.70;40.30;;;;;;5076350;28;20181;-63
2022/07/22 12:11:47;;;;;;;6.70;6.00;;;31.90;40.90;;;;;;5085639;28;20197;-63
2022/07/22 12:14:46;;;;;;;7.72;5.88;;;32.00;39.90;;;;;;5081195;28;20173;-63
2022/07/22 12:17:12;;;;;;;6.68;5.97;;;32.30;39.90;;;;;;5082846;28;20193;-64
2022/07/22 12:19:40;;;;;;;14.02;6.80;;;32.20;38.20;;;;;;5085239;28;20173;-63
2022/07/22 12:22:05;;;;;;;11.73;6.70;;;32.10;38.30;;;;;;5083052;28;20568;-63
2022/07/22 12:24:42;;;;;;;11.27;6.20;;;32.00;38.00;;;;;;5077949;28;20191;-63
2022/07/22 12:27:13;;;;;;;10.15;6.70;;;32.00;39.30;;;;;;5076504;28;20197;-63
2022/07/22 12:29:39;;;;;;;7.90;5.80;;;32.10;39.30;;;;;;5083526;28;20181;-63
2022/07/22 12:32:16;;;;;;;7.90;6.50;;;32.30;38.70;;;;;;5078030;28;20604;-63
2022/07/22 12:34:43;;;;;;;7.43;6.13;;;32.30;39.00;;;;;;5085714;28;20173;-62
2022/07/22 12:37:21;;;;;;;8.05;6.05;;;32.50;38.30;;;;;;5087631;28;20761;-62
2022/07/22 12:39:56;;;;;;;5.35;4.85;;;32.70;37.50;;;;;;5087466;28;20228;-62